createdAt,value
2023-04-03T00:00:38.438Z,103098.88
2023-04-03T00:03:05.107Z,103109.44
2023-04-03T00:05:31.729Z,103105.09
2023-04-03T00:07:58.206Z,103097.56
2023-04-03T00:10:24.841Z,103087.47
2023-04-03T00:12:51.155Z,103095.28
2023-04-03T00:15:17.488Z,103089.97
2023-04-03T00:17:43.848Z,103101.38
2023-04-03T00:20:10.873Z,103096.22
2023-04-03T00:22:37.251Z,103094.13
2023-04-03T00:25:04.394Z,103104.53
2023-04-03T00:27:31.146Z,103100.06
2023-04-03T00:29:57.568Z,103100.78
2023-04-03T00:32:24.140Z,103109.84
2023-04-03T00:34:50.742Z,103099.63
2023-04-03T00:37:17.063Z,103110.28
2023-04-03T00:39:43.498Z,103110.50
2023-04-03T00:42:09.940Z,103100.88
2023-04-03T00:44:36.277Z,103110.06
2023-04-03T00:47:04.956Z,103107.63
2023-04-03T00:49:31.360Z,103115.69
2023-04-03T00:51:57.869Z,103114.38
2023-04-03T00:54:24.163Z,103120.81
2023-04-03T00:56:52.749Z,103118.91
2023-04-03T00:59:26.217Z,103110.94
2023-04-03T01:01:55.865Z,103105.84
2023-04-03T01:04:32.401Z,103117.34
2023-04-03T01:07:02.384Z,103114.72
2023-04-03T01:09:29.780Z,103113.19
2023-04-03T01:12:13.912Z,103120.94
2023-04-03T01:14:40.438Z,103118.53
2023-04-03T01:17:33.660Z,103109.75
2023-04-03T01:20:32.418Z,103121.13
2023-04-03T01:23:11.064Z,103125.09
2023-04-03T01:25:41.600Z,103125.16
2023-04-03T01:28:11.550Z,103129.50
2023-04-03T01:30:57.842Z,103131.44
2023-04-03T01:33:24.548Z,103133.91
2023-04-03T01:35:51.199Z,103134.09
2023-04-03T01:38:17.710Z,103129.19
2023-04-03T01:40:44.194Z,103137.16
2023-04-03T01:43:11.067Z,103135.41
2023-04-03T01:45:37.573Z,103142.72
2023-04-03T01:48:04.066Z,103136.06
2023-04-03T01:50:30.439Z,103143.94
2023-04-03T01:52:56.861Z,103141.75
2023-04-03T01:55:23.271Z,103140.16
2023-04-03T01:57:49.727Z,103145.25
2023-04-03T02:00:16.469Z,103142.22
2023-04-03T02:02:42.965Z,103146.28
2023-04-03T02:05:09.694Z,103139.03
2023-04-03T02:07:36.129Z,103148.22
2023-04-03T02:10:02.665Z,103150.22
2023-04-03T02:12:29.062Z,103143.13
2023-04-03T02:14:55.564Z,103141.81
2023-04-03T02:17:22.088Z,103147.69
2023-04-03T02:19:48.686Z,103149.34
2023-04-03T02:22:15.160Z,103151.91
2023-04-03T02:24:42.385Z,103142.22
2023-04-03T02:27:08.796Z,103148.84
2023-04-03T02:29:35.313Z,103150.69
2023-04-03T02:32:01.841Z,103151.06
2023-04-03T02:34:28.308Z,103148.22
2023-04-03T02:36:54.710Z,103155.53
2023-04-03T02:39:21.276Z,103155.88
2023-04-03T02:41:47.637Z,103150.47
2023-04-03T02:44:14.259Z,103154.97
2023-04-03T02:46:40.745Z,103148.97
2023-04-03T02:49:07.377Z,103162.31
2023-04-03T02:51:33.831Z,103157.63
2023-04-03T02:54:00.601Z,103169.75
2023-04-03T02:56:27.806Z,103152.72
2023-04-03T02:58:54.234Z,103164.00
2023-04-03T03:01:21.517Z,103157.75
2023-04-03T03:03:47.924Z,103164.00
2023-04-03T03:06:16.307Z,103166.06
2023-04-03T03:08:43.021Z,103157.69
2023-04-03T03:11:10.399Z,103161.69
2023-04-03T03:13:36.881Z,103152.06
2023-04-03T03:16:03.688Z,103160.47
2023-04-03T03:18:30.426Z,103163.00
2023-04-03T03:20:58.866Z,103152.47
2023-04-03T03:23:27.050Z,103160.50
2023-04-03T03:26:01.049Z,103165.19
2023-04-03T03:28:27.584Z,103158.41
2023-04-03T03:30:54.126Z,103158.53
2023-04-03T03:33:20.621Z,103154.25
2023-04-03T03:35:47.484Z,103159.03
2023-04-03T03:38:13.948Z,103156.09
2023-04-03T03:40:40.678Z,103160.63
2023-04-03T03:43:07.149Z,103153.13
2023-04-03T03:45:33.587Z,103159.47
2023-04-03T03:48:00.069Z,103155.88
2023-04-03T03:50:26.619Z,103162.09
2023-04-03T03:52:53.074Z,103161.06
2023-04-03T03:55:19.528Z,103157.09
2023-04-03T03:57:46.037Z,103159.63
2023-04-03T04:00:12.890Z,103160.16
2023-04-03T04:02:39.484Z,103164.00
2023-04-03T04:05:06.207Z,103166.94
2023-04-03T04:07:32.597Z,103164.50
2023-04-03T04:09:59.025Z,103162.88
2023-04-03T04:12:25.457Z,103168.53
2023-04-03T04:14:51.873Z,103171.78
2023-04-03T04:17:18.469Z,103175.16
2023-04-03T04:19:44.897Z,103179.81
2023-04-03T04:22:11.372Z,103169.28
2023-04-03T04:24:38.611Z,103179.59
2023-04-03T04:27:06.184Z,103177.13
2023-04-03T04:29:36.585Z,103182.34
2023-04-03T04:32:04.022Z,103190.66
2023-04-03T04:34:31.091Z,103192.25
2023-04-03T04:36:57.812Z,103192.66
2023-04-03T04:39:24.445Z,103193.56
2023-04-03T04:41:50.836Z,103195.13
2023-04-03T04:44:17.351Z,103198.22
2023-04-03T04:46:44.086Z,103202.09
2023-04-03T04:49:10.754Z,103214.16
2023-04-03T04:51:48.320Z,103205.75
2023-04-03T04:54:17.985Z,103202.13
2023-04-03T04:56:44.414Z,103200.22
2023-04-03T04:59:10.971Z,103196.78
2023-04-03T05:01:37.604Z,103204.34
2023-04-03T05:04:04.095Z,103214.63
2023-04-03T05:06:32.708Z,103212.97
2023-04-03T05:08:59.589Z,103219.47
2023-04-03T05:11:26.877Z,103218.59
2023-04-03T05:13:53.622Z,103223.16
2023-04-03T05:16:20.376Z,103228.81
2023-04-03T05:18:46.883Z,103223.53
2023-04-03T05:21:13.418Z,103224.25
2023-04-03T05:23:39.828Z,103225.69
2023-04-03T05:26:06.893Z,103219.25
2023-04-03T05:28:33.406Z,103228.88
2023-04-03T05:31:00.243Z,103218.22
2023-04-03T05:33:27.278Z,103216.56
2023-04-03T05:35:54.339Z,103229.00
2023-04-03T05:38:21.391Z,103220.03
2023-04-03T05:40:47.897Z,103228.31
2023-04-03T05:43:14.386Z,103221.06
2023-04-03T05:45:40.893Z,103226.59
2023-04-03T05:48:07.382Z,103229.34
2023-04-03T05:50:33.823Z,103242.94
2023-04-03T05:53:00.385Z,103249.69
2023-04-03T05:55:26.801Z,103241.03
2023-04-03T05:57:53.280Z,103236.25
2023-04-03T06:00:20.030Z,103241.16
2023-04-03T06:02:46.547Z,103248.09
2023-04-03T06:05:14.133Z,103257.44
2023-04-03T06:07:40.848Z,103258.13
2023-04-03T06:10:07.853Z,103260.81
2023-04-03T06:12:34.274Z,103256.72
2023-04-03T06:15:00.690Z,103270.31
2023-04-03T06:17:27.992Z,103268.00
2023-04-03T06:19:54.505Z,103265.50
2023-04-03T06:22:20.911Z,103272.16
2023-04-03T06:24:47.524Z,103268.25
2023-04-03T06:27:14.040Z,103265.06
2023-04-03T06:29:40.877Z,103266.59
2023-04-03T06:32:07.317Z,103272.19
2023-04-03T06:34:34.426Z,103274.25
2023-04-03T06:37:00.912Z,103274.97
2023-04-03T06:39:28.268Z,103276.66
2023-04-03T06:41:54.749Z,103280.75
2023-04-03T06:44:21.131Z,103278.72
2023-04-03T06:46:47.786Z,103283.09
2023-04-03T06:49:14.293Z,103280.44
2023-04-03T06:51:40.862Z,103286.97
2023-04-03T06:54:09.342Z,103287.91
2023-04-03T06:56:36.541Z,103296.69
2023-04-03T06:59:03.733Z,103298.19
2023-04-03T07:01:30.877Z,103299.50
2023-04-03T07:03:57.626Z,103305.56
2023-04-03T07:06:24.256Z,103314.75
2023-04-03T07:08:51.369Z,103311.97
2023-04-03T07:11:17.918Z,103322.91
2023-04-03T07:13:44.325Z,103315.00
2023-04-03T07:16:11.086Z,103317.72
2023-04-03T07:18:37.549Z,103328.22
2023-04-03T07:21:04.977Z,103319.66
2023-04-03T07:23:31.510Z,103324.81
2023-04-03T07:25:58.042Z,103323.84
2023-04-03T07:28:25.330Z,103333.25
2023-04-03T07:30:54.242Z,103333.66
2023-04-03T07:33:22.727Z,103341.38
2023-04-03T07:35:49.374Z,103351.13
2023-04-03T07:38:17.038Z,103339.84
2023-04-03T07:40:48.018Z,103342.53
2023-04-03T07:43:15.590Z,103336.88
2023-04-03T07:45:42.206Z,103340.09
2023-04-03T07:48:08.606Z,103344.72
2023-04-03T07:50:35.038Z,103340.19
2023-04-03T07:53:01.765Z,103340.41
2023-04-03T07:55:28.200Z,103348.97
2023-04-03T07:57:54.660Z,103347.69
2023-04-03T08:00:21.360Z,103349.34
2023-04-03T08:02:52.626Z,103341.16
2023-04-03T08:05:20.105Z,103346.91
2023-04-03T08:07:47.616Z,103350.69
2023-04-03T08:10:15.143Z,103352.16
2023-04-03T08:12:41.922Z,103349.84
2023-04-03T08:15:09.655Z,103352.84
2023-04-03T08:17:36.531Z,103349.91
2023-04-03T08:20:05.430Z,103351.75
2023-04-03T08:22:32.077Z,103343.75
2023-04-03T08:24:59.674Z,103351.53
2023-04-03T08:27:28.383Z,103347.63
2023-04-03T08:29:55.512Z,103342.03
2023-04-03T08:32:21.909Z,103341.53
2023-04-03T08:34:48.336Z,103341.19
2023-04-03T08:37:14.799Z,103341.44
2023-04-03T08:39:41.305Z,103348.34
2023-04-03T08:42:17.221Z,103341.47
2023-04-03T08:45:15.875Z,103338.53
2023-04-03T08:47:55.383Z,103336.00
2023-04-03T08:50:30.984Z,103337.34
2023-04-03T08:52:59.094Z,103331.47
2023-04-03T08:55:28.643Z,103329.13
2023-04-03T08:58:22.261Z,103326.16
2023-04-03T09:00:52.008Z,103317.41
2023-04-03T09:03:20.814Z,103323.94
2023-04-03T09:06:09.151Z,103331.69
2023-04-03T09:08:48.327Z,103322.16
2023-04-03T09:11:24.714Z,103328.72
2023-04-03T09:14:15.524Z,103326.47
2023-04-03T09:17:01.856Z,103336.34
2023-04-03T09:19:31.436Z,103325.47
2023-04-03T09:21:59.606Z,103325.72
2023-04-03T09:24:26.480Z,103318.50
2023-04-03T09:27:00.277Z,103313.94
2023-04-03T09:29:27.119Z,103318.75
2023-04-03T09:31:57.778Z,103329.56
2023-04-03T09:34:27.448Z,103321.22
2023-04-03T09:36:56.656Z,103318.59
2023-04-03T09:39:25.903Z,103323.63
2023-04-03T09:42:01.216Z,103315.50
2023-04-03T09:44:33.825Z,103312.72
2023-04-03T09:47:00.497Z,103306.13
2023-04-03T09:49:27.198Z,103311.00
2023-04-03T09:51:54.704Z,103301.78
2023-04-03T09:54:38.383Z,103304.97
2023-04-03T09:57:12.686Z,103311.50
2023-04-03T10:00:01.490Z,103309.91
2023-04-03T10:02:40.610Z,103300.88
2023-04-03T10:05:30.567Z,103314.09
2023-04-03T10:08:12.405Z,103294.16
2023-04-03T10:10:39.453Z,103301.88
2023-04-03T10:13:20.593Z,103299.59
2023-04-03T10:16:18.562Z,103293.06
2023-04-03T10:18:48.687Z,103293.38
2023-04-03T10:21:32.090Z,103303.00
2023-04-03T10:24:07.060Z,103284.13
2023-04-03T10:26:38.728Z,103278.28
2023-04-03T10:29:42.655Z,103277.19
2023-04-03T10:32:43.007Z,103275.16
2023-04-03T10:35:19.636Z,103270.00
2023-04-03T10:38:06.629Z,103266.31
2023-04-03T10:40:48.310Z,103268.88
2023-04-03T10:43:23.815Z,103276.53
2023-04-03T10:45:58.476Z,103263.78
2023-04-03T10:48:37.115Z,103261.78
2023-04-03T10:51:23.303Z,103247.28
2023-04-03T10:54:10.431Z,103250.88
2023-04-03T10:56:41.269Z,103251.06
2023-04-03T10:59:28.317Z,103248.25
2023-04-03T11:01:58.212Z,103259.63
2023-04-03T11:04:28.759Z,103255.25
2023-04-03T11:07:02.910Z,103248.75
2023-04-03T11:09:32.747Z,103238.31
2023-04-03T11:12:14.346Z,103241.72
2023-04-03T11:14:41.314Z,103238.00
2023-04-03T11:17:24.898Z,103234.28
2023-04-03T11:20:07.954Z,103237.91
2023-04-03T11:22:44.047Z,103230.03
2023-04-03T11:25:11.372Z,103229.72
2023-04-03T11:27:57.107Z,103232.75
2023-04-03T11:30:32.397Z,103213.13
2023-04-03T11:33:07.277Z,103230.84
2023-04-03T11:35:34.441Z,103210.78
2023-04-03T11:38:01.704Z,103234.28
2023-04-03T11:40:36.054Z,103227.41
2023-04-03T11:43:05.256Z,103208.16
2023-04-03T11:45:37.136Z,103200.84
2023-04-03T11:48:29.660Z,103213.44
2023-04-03T11:50:56.977Z,103211.16
2023-04-03T11:53:32.479Z,103214.19
2023-04-03T11:56:01.298Z,103207.94
2023-04-03T11:58:33.256Z,103189.66
2023-04-03T12:01:08.811Z,103183.00
2023-04-03T12:03:41.495Z,103182.03
2023-04-03T12:06:07.963Z,103182.75
2023-04-03T12:08:34.408Z,103179.94
2023-04-03T12:11:09.974Z,103182.03
2023-04-03T12:13:41.256Z,103188.56
2023-04-03T12:16:27.930Z,103181.19
2023-04-03T12:18:54.396Z,103194.25
2023-04-03T12:21:52.917Z,103175.69
2023-04-03T12:24:22.288Z,103173.25
2023-04-03T12:27:20.157Z,103194.50
2023-04-03T12:30:04.894Z,103161.31
2023-04-03T12:32:40.484Z,103153.06
2023-04-03T12:35:29.134Z,103154.03
2023-04-03T12:38:16.012Z,103152.59
2023-04-03T12:41:04.227Z,103155.88
2023-04-03T12:43:51.560Z,103159.69
2023-04-03T12:46:23.342Z,103149.69
2023-04-03T12:48:56.217Z,103151.16
2023-04-03T12:51:29.532Z,103142.34
2023-04-03T12:54:03.003Z,103139.63
2023-04-03T12:56:33.635Z,103140.91
2023-04-03T12:59:28.741Z,103128.97
2023-04-03T13:01:59.912Z,103133.56
2023-04-03T13:04:28.018Z,103126.03
2023-04-03T13:06:54.557Z,103132.88
2023-04-03T13:09:28.667Z,103136.88
2023-04-03T13:12:02.349Z,103129.09
2023-04-03T13:14:29.998Z,103132.16
2023-04-03T13:16:58.551Z,103123.28
2023-04-03T13:19:29.578Z,103120.00
2023-04-03T13:22:02.335Z,103118.63
2023-04-03T13:24:30.889Z,103118.47
2023-04-03T13:26:57.441Z,103105.16
2023-04-03T13:29:33.080Z,103117.94
2023-04-03T13:32:01.379Z,103122.94
2023-04-03T13:34:38.324Z,103122.78
2023-04-03T13:37:05.796Z,103110.28
2023-04-03T13:39:40.313Z,103106.31
2023-04-03T13:42:37.593Z,103101.81
2023-04-03T13:45:29.059Z,103109.81
2023-04-03T13:48:22.177Z,103103.50
2023-04-03T13:51:02.424Z,103101.09
2023-04-03T13:53:30.874Z,103100.81
2023-04-03T13:56:00.847Z,103098.44
2023-04-03T13:58:32.155Z,103102.47
2023-04-03T14:01:08.034Z,103101.03
2023-04-03T14:03:42.403Z,103097.59
2023-04-03T14:06:13.539Z,103079.19
2023-04-03T14:08:43.287Z,103091.97
2023-04-03T14:11:14.881Z,103080.75
2023-04-03T14:13:41.620Z,103079.03
2023-04-03T14:16:15.627Z,103085.31
2023-04-03T14:18:42.473Z,103089.19
2023-04-03T14:21:11.715Z,103063.06
2023-04-03T14:23:38.750Z,103076.13
2023-04-03T14:26:10.965Z,103083.06
2023-04-03T14:28:37.404Z,103076.25
2023-04-03T14:31:04.137Z,103080.59
2023-04-03T14:33:32.115Z,103073.50
2023-04-03T14:35:58.593Z,103074.56
2023-04-03T14:38:27.801Z,103075.38
2023-04-03T14:40:57.072Z,103069.06
2023-04-03T14:43:26.262Z,103066.84
2023-04-03T14:45:52.920Z,103073.03
2023-04-03T14:48:23.030Z,103065.06
2023-04-03T14:51:04.662Z,103065.84
2023-04-03T14:53:38.789Z,103061.78
2023-04-03T14:56:23.265Z,103058.78
2023-04-03T14:58:51.826Z,103057.56
2023-04-03T15:01:18.912Z,103048.31
2023-04-03T15:03:45.882Z,103042.25
2023-04-03T15:06:14.202Z,103057.00
2023-04-03T15:08:43.027Z,103051.19
2023-04-03T15:11:10.957Z,103058.31
2023-04-03T15:13:38.296Z,103054.59
2023-04-03T15:16:06.214Z,103053.50
2023-04-03T15:18:38.172Z,103043.31
2023-04-03T15:21:05.594Z,103046.03
2023-04-03T15:23:32.238Z,103043.25
2023-04-03T15:25:58.821Z,103052.97
2023-04-03T15:28:36.647Z,103032.78
2023-04-03T15:31:03.450Z,103034.13
2023-04-03T15:33:30.073Z,103034.50
2023-04-03T15:36:06.520Z,103032.91
2023-04-03T15:38:34.583Z,103030.56
2023-04-03T15:41:01.076Z,103022.59
2023-04-03T15:43:27.627Z,103030.88
2023-04-03T15:45:58.016Z,103024.84
2023-04-03T15:48:24.511Z,103017.25
2023-04-03T15:50:51.086Z,103019.34
2023-04-03T15:53:17.523Z,103021.59
2023-04-03T15:55:44.010Z,103012.44
2023-04-03T15:58:12.078Z,103018.53
2023-04-03T16:00:39.303Z,103009.28
2023-04-03T16:03:09.936Z,103008.34
2023-04-03T16:05:37.585Z,103000.84
2023-04-03T16:08:04.708Z,103005.22
2023-04-03T16:10:31.339Z,102998.53
2023-04-03T16:12:57.877Z,103010.25
2023-04-03T16:15:25.344Z,103010.41
2023-04-03T16:17:52.121Z,103004.25
2023-04-03T16:20:19.643Z,103003.22
2023-04-03T16:22:46.341Z,103000.19
2023-04-03T16:25:13.188Z,103015.09
2023-04-03T16:27:40.962Z,103002.31
2023-04-03T16:30:08.393Z,102999.72
2023-04-03T16:32:35.630Z,103008.44
2023-04-03T16:37:33.714Z,103000.06
2023-04-03T16:40:00.163Z,103009.34
2023-04-03T16:42:26.625Z,103006.25
2023-04-03T16:44:52.995Z,103005.53
2023-04-03T16:47:20.685Z,103007.66
2023-04-03T16:49:48.124Z,103002.44
2023-04-03T16:52:15.353Z,102994.81
2023-04-03T16:54:42.021Z,103003.66
2023-04-03T16:57:08.600Z,103004.38
2023-04-03T16:59:35.395Z,102997.72
2023-04-03T17:02:01.866Z,103000.09
2023-04-03T17:04:28.329Z,103004.03
2023-04-03T17:06:55.675Z,103004.72
2023-04-03T17:09:23.646Z,103003.22
2023-04-03T17:11:50.204Z,103004.41
2023-04-03T17:14:16.706Z,103002.44
2023-04-03T17:16:43.415Z,103009.31
2023-04-03T17:19:09.928Z,103008.25
2023-04-03T17:21:36.685Z,103007.09
2023-04-03T17:24:04.781Z,103011.59
2023-04-03T17:26:31.399Z,103003.78
2023-04-03T17:28:57.871Z,103007.25
2023-04-03T17:31:24.415Z,103002.78
2023-04-03T17:33:50.915Z,103016.00
2023-04-03T17:36:17.317Z,103009.34
2023-04-03T17:38:43.761Z,103014.69
2023-04-03T17:41:10.432Z,103008.69
2023-04-03T17:43:36.939Z,103021.53
2023-04-03T17:46:05.593Z,103019.78
2023-04-03T17:48:33.137Z,103018.91
2023-04-03T17:51:00.204Z,103026.88
2023-04-03T17:53:27.642Z,103021.31
2023-04-03T17:55:54.080Z,103018.13
2023-04-03T17:58:20.810Z,103015.06
2023-04-03T18:00:47.216Z,103030.06
2023-04-03T18:03:13.962Z,103029.31
2023-04-03T18:05:40.648Z,103031.47
2023-04-03T18:08:07.537Z,103033.91
2023-04-03T18:10:36.656Z,103030.88
2023-04-03T18:13:05.760Z,103025.84
2023-04-03T18:15:32.274Z,103029.28
2023-04-03T18:17:58.724Z,103033.50
2023-04-03T18:20:25.197Z,103025.03
2023-04-03T18:22:52.504Z,103032.38
2023-04-03T18:25:19.245Z,103030.41
2023-04-03T18:27:46.740Z,103036.25
2023-04-03T18:30:15.390Z,103040.09
2023-04-03T18:32:41.801Z,103040.78
2023-04-03T18:35:09.458Z,103042.34
2023-04-03T18:37:36.165Z,103038.47
2023-04-03T18:40:02.663Z,103033.00
2023-04-03T18:42:29.052Z,103042.97
2023-04-03T18:44:58.671Z,103044.56
2023-04-03T18:47:25.296Z,103049.06
2023-04-03T18:49:51.717Z,103045.97
2023-04-03T18:52:18.142Z,103045.16
2023-04-03T18:54:44.651Z,103048.28
2023-04-03T18:57:11.397Z,103042.19
2023-04-03T18:59:38.617Z,103042.84
2023-04-03T19:02:06.113Z,103037.81
2023-04-03T19:04:32.545Z,103044.25
2023-04-03T19:06:59.096Z,103033.13
2023-04-03T19:09:26.220Z,103036.50
2023-04-03T19:11:52.632Z,103040.16
2023-04-03T19:14:19.016Z,103044.59
2023-04-03T19:16:45.486Z,103042.66
2023-04-03T19:19:12.101Z,103043.69
2023-04-03T19:21:41.305Z,103051.72
2023-04-03T19:24:09.885Z,103045.13
2023-04-03T19:26:36.402Z,103045.22
2023-04-03T19:29:02.863Z,103044.31
2023-04-03T19:34:04.008Z,103049.00
2023-04-03T19:36:31.211Z,103042.63
2023-04-03T19:38:57.786Z,103047.97
2023-04-03T19:41:25.797Z,103049.41
2023-04-03T19:43:54.322Z,103047.09
2023-04-03T19:46:25.315Z,103043.16
2023-04-03T19:48:52.232Z,103044.00
2023-04-03T19:51:18.708Z,103034.25
2023-04-03T19:53:45.196Z,103049.34
2023-04-03T19:56:11.750Z,103034.59
2023-04-03T19:58:39.431Z,103044.19
2023-04-03T20:01:06.104Z,103039.69
2023-04-03T20:03:33.389Z,103042.47
2023-04-03T20:06:00.492Z,103043.09
2023-04-03T20:08:28.612Z,103047.78
2023-04-03T20:10:55.960Z,103050.41
2023-04-03T20:13:22.477Z,103046.53
2023-04-03T20:15:49.044Z,103050.09
2023-04-03T20:18:19.639Z,103047.78
2023-04-03T20:20:52.658Z,103043.59
2023-04-03T20:23:19.544Z,103047.19
2023-04-03T20:25:57.679Z,103045.81
2023-04-03T20:28:33.391Z,103044.28
2023-04-03T20:31:02.181Z,103040.47
2023-04-03T20:33:28.661Z,103046.97
2023-04-03T20:35:56.796Z,103041.81
2023-04-03T20:38:23.483Z,103049.25
2023-04-03T20:40:49.997Z,103047.22
2023-04-03T20:43:17.112Z,103041.63
2023-04-03T20:45:43.593Z,103041.00
2023-04-03T20:48:13.128Z,103045.50
2023-04-03T20:50:41.197Z,103037.81
2023-04-03T20:53:08.284Z,103034.31
2023-04-03T20:55:35.067Z,103031.41
2023-04-03T20:58:01.895Z,103028.34
2023-04-03T21:00:32.120Z,103035.22
2023-04-03T21:03:01.285Z,103029.47
2023-04-03T21:05:30.320Z,103036.75
2023-04-03T21:08:36.007Z,103030.41
2023-04-03T21:11:40.092Z,103039.19
2023-04-03T21:14:46.867Z,103037.00
2023-04-03T21:17:13.447Z,103035.50
2023-04-03T21:19:45.987Z,103031.75
2023-04-03T21:22:13.591Z,103033.41
2023-04-03T21:24:40.229Z,103029.16
2023-04-03T21:27:06.701Z,103039.66
2023-04-03T21:29:33.135Z,103039.13
2023-04-03T21:32:01.536Z,103038.03
2023-04-03T21:34:29.764Z,103031.94
2023-04-03T21:37:04.609Z,103034.72
2023-04-03T21:39:31.596Z,103037.00
2023-04-03T21:41:58.017Z,103035.28
2023-04-03T21:44:25.053Z,103028.16
2023-04-03T21:46:54.723Z,103029.03
2023-04-03T21:49:22.459Z,103031.06
2023-04-03T21:51:51.324Z,103025.25
2023-04-03T21:54:18.146Z,103025.31
2023-04-03T21:56:44.683Z,103025.16
2023-04-03T21:59:11.397Z,103024.91
2023-04-03T22:01:38.020Z,103016.81
2023-04-03T22:04:04.476Z,103018.00
2023-04-03T22:06:31.171Z,103022.16
2023-04-03T22:08:57.730Z,103021.22
2023-04-03T22:11:27.547Z,103020.25
2023-04-03T22:13:55.076Z,103025.78
2023-04-03T22:16:23.431Z,103023.16
2023-04-03T22:18:52.026Z,103016.19
2023-04-03T22:21:18.770Z,103022.81
2023-04-03T22:23:45.345Z,103022.81
2023-04-03T22:26:13.132Z,103022.47
2023-04-03T22:28:45.038Z,103014.44
2023-04-03T22:31:13.540Z,103018.09
2023-04-03T22:33:41.099Z,103015.88
2023-04-03T22:36:09.268Z,103017.28
2023-04-03T22:38:35.746Z,103010.34
2023-04-03T22:41:03.605Z,103017.66
2023-04-03T22:43:31.543Z,103009.28
2023-04-03T22:45:58.387Z,103012.38
2023-04-03T22:48:24.824Z,103005.44
2023-04-03T22:50:51.632Z,103010.75
2023-04-03T22:53:18.677Z,103002.75
2023-04-03T22:55:53.339Z,103014.03
2023-04-03T22:58:23.361Z,103006.81
2023-04-03T23:00:49.839Z,103006.22
2023-04-03T23:03:16.395Z,103003.19
2023-04-03T23:05:42.811Z,103017.78
2023-04-03T23:08:09.195Z,103008.47
2023-04-03T23:10:35.705Z,103017.59
2023-04-03T23:13:02.223Z,103006.16
2023-04-03T23:15:28.628Z,103015.03
2023-04-03T23:17:55.063Z,103013.06
2023-04-03T23:20:21.535Z,103017.44
2023-04-03T23:22:47.960Z,103013.56
2023-04-03T23:25:14.367Z,103012.78
2023-04-03T23:27:40.779Z,103018.66
2023-04-03T23:30:07.883Z,103011.94
2023-04-03T23:32:34.366Z,103008.41
2023-04-03T23:35:00.875Z,103008.06
2023-04-03T23:37:27.439Z,103009.00
2023-04-03T23:39:53.918Z,103012.63
2023-04-03T23:42:20.314Z,103015.31
2023-04-03T23:44:46.752Z,103007.53
2023-04-03T23:47:13.134Z,103018.00
2023-04-03T23:49:39.539Z,103013.38
2023-04-03T23:52:06.128Z,103012.41
2023-04-03T23:54:32.536Z,103011.16
2023-04-03T23:57:00.896Z,103023.09
2023-04-03T23:59:27.613Z,103020.34
